Time;durP1;ratioP1;P1;durP2;ratioP2;P2;SDS_P1;SDS_P2;PMS_P1;PMS_P2;Temp;Humidity;BMP_temperature;BMP_pressure;BME280_temperature;BME280_humidity;BME280_pressure;Samples;Min_cycle;Max_cycle;Signal;HPM_P1;HPM_P2
2022/05/22 00:01:19;;;;;;;2.65;1.40;;;13.30;70.00;;;;;;5094135;28;20032;-74
2022/05/22 00:03:44;;;;;;;1.83;1.30;;;13.30;70.10;;;;;;5075668;28;20028;-73
2022/05/22 00:06:10;;;;;;;3.45;1.50;;;13.20;70.40;;;;;;5093866;28;20028;-74
2022/05/22 00:08:35;;;;;;;6.78;1.42;;;13.20;70.20;;;;;;5093654;28;20024;-74
2022/05/22 00:11:01;;;;;;;6.65;1.65;;;13.30;70.10;;;;;;5093813;28;20384;-73
2022/05/22 00:13:27;;;;;;;3.65;1.38;;;13.30;70.20;;;;;;5093902;28;20403;-74
2022/05/22 00:18:37;;;;;;;2.80;1.25;;;13.20;70.20;;;;;;5093728;28;20031;-73
2022/05/22 00:21:02;;;;;;;4.43;1.60;;;13.10;70.90;;;;;;5093441;28;20048;-73
2022/05/22 00:23:31;;;;;;;3.42;1.30;;;13.00;70.90;;;;;;5093503;28;20043;-74
2022/05/22 00:25:57;;;;;;;3.58;1.20;;;12.90;71.10;;;;;;5093646;28;20483;-75
2022/05/22 00:28:23;;;;;;;4.20;1.25;;;12.90;71.40;;;;;;5093595;28;20032;-73
2022/05/22 00:30:48;;;;;;;3.13;1.40;;;12.90;71.30;;;;;;5093372;28;20020;-73
2022/05/22 00:33:14;;;;;;;2.65;1.23;;;12.80;71.30;;;;;;5093213;28;20039;-74
2022/05/22 00:35:40;;;;;;;3.25;1.02;;;12.80;71.50;;;;;;5093476;28;20047;-73
2022/05/22 00:38:06;;;;;;;2.55;1.40;;;12.80;71.30;;;;;;5093499;28;20042;-75
2022/05/22 00:40:32;;;;;;;4.30;1.60;;;12.80;71.30;;;;;;5093503;28;20379;-79
2022/05/22 00:42:57;;;;;;;2.22;1.23;;;12.90;71.40;;;;;;5075053;28;20032;-75
2022/05/22 00:45:23;;;;;;;3.90;1.55;;;12.80;71.20;;;;;;5093312;28;20026;-73
2022/05/22 00:47:51;;;;;;;7.15;1.45;;;12.80;71.50;;;;;;5093405;28;20461;-75
2022/05/22 00:50:17;;;;;;;2.17;1.02;;;12.70;71.70;;;;;;5093353;28;20464;-74
2022/05/22 00:52:49;;;;;;;1.45;1.00;;;12.60;72.10;;;;;;5093058;28;20388;-73
2022/05/22 00:55:21;;;;;;;2.00;1.15;;;12.60;72.10;;;;;;5093171;28;20424;-74
2022/05/22 00:57:57;;;;;;;3.17;1.13;;;12.60;72.40;;;;;;5093250;28;20058;-73
2022/05/22 01:00:32;;;;;;;3.47;1.30;;;12.60;72.30;;;;;;5092947;28;20012;-72
2022/05/22 01:05:49;;;;;;;2.58;1.20;;;12.50;72.60;;;;;;5093386;28;20442;-74
2022/05/22 01:08:14;;;;;;;3.70;1.60;;;12.40;73.10;;;;;;5093213;28;20028;-73
2022/05/22 01:10:45;;;;;;;4.47;1.63;;;12.40;73.20;;;;;;5092801;28;20039;-78
2022/05/22 01:13:13;;;;;;;3.08;1.50;;;12.30;73.30;;;;;;5092957;28;20031;-77
2022/05/22 01:15:39;;;;;;;6.18;1.33;;;12.30;73.30;;;;;;5093151;28;20020;-75
2022/05/22 01:18:05;;;;;;;4.63;1.40;;;12.30;73.40;;;;;;5092864;28;20020;-73
2022/05/22 01:20:30;;;;;;;4.28;1.30;;;12.20;73.40;;;;;;5092797;28;20035;-73
2022/05/22 01:22:56;;;;;;;3.03;1.40;;;12.20;73.80;;;;;;5092848;28;20089;-73
2022/05/22 01:25:21;;;;;;;4.53;1.40;;;12.20;74.00;;;;;;5092947;28;20031;-73
2022/05/22 01:27:47;;;;;;;5.38;1.17;;;12.10;74.10;;;;;;5092783;28;20024;-74
2022/05/22 01:30:18;;;;;;;3.67;1.45;;;12.20;74.00;;;;;;5092973;28;20476;-73
2022/05/22 01:32:47;;;;;;;4.65;1.35;;;12.00;74.40;;;;;;5074797;28;20028;-73
2022/05/22 01:35:19;;;;;;;7.30;1.95;;;12.00;74.50;;;;;;5092828;28;20078;-73
2022/05/22 01:37:46;;;;;;;4.70;1.30;;;12.10;74.40;;;;;;5092710;28;20469;-75
2022/05/22 01:40:13;;;;;;;4.28;1.20;;;12.10;74.40;;;;;;5093107;28;20020;-74
2022/05/22 01:42:39;;;;;;;2.75;1.50;;;12.10;74.20;;;;;;5092989;28;20040;-74
2022/05/22 01:45:07;;;;;;;2.65;1.10;;;12.10;74.50;;;;;;5092775;28;20020;-73
2022/05/22 01:47:34;;;;;;;2.95;1.33;;;12.00;74.40;;;;;;5074576;28;20069;-73
2022/05/22 01:50:00;;;;;;;2.80;1.48;;;12.00;74.40;;;;;;5092887;28;20443;-73
2022/05/22 01:52:25;;;;;;;4.65;1.35;;;12.00;74.50;;;;;;5092974;28;20060;-73
2022/05/22 01:54:51;;;;;;;4.05;1.05;;;12.00;74.50;;;;;;5094274;28;20076;-73
2022/05/22 01:57:16;;;;;;;2.88;1.60;;;12.00;74.50;;;;;;5094929;28;20388;-74
2022/05/22 01:59:42;;;;;;;3.40;1.55;;;12.10;74.70;;;;;;5093468;28;20027;-74
2022/05/22 02:02:08;;;;;;;4.47;1.50;;;12.20;74.30;;;;;;5074820;28;20548;-74
2022/05/22 02:04:34;;;;;;;2.83;1.20;;;12.10;74.30;;;;;;5093079;28;20101;-73
2022/05/22 02:09:43;;;;;;;8.05;1.60;;;12.20;74.10;;;;;;5093614;28;20031;-74
2022/05/22 02:12:09;;;;;;;4.55;1.30;;;12.10;73.90;;;;;;5094593;28;20032;-76
2022/05/22 02:14:35;;;;;;;2.92;1.45;;;12.10;74.40;;;;;;5097311;28;20020;-74
2022/05/22 02:17:01;;;;;;;4.07;1.45;;;12.00;74.50;;;;;;5096006;28;20103;-74
2022/05/22 02:19:26;;;;;;;3.88;1.58;;;12.00;74.50;;;;;;5096043;28;20491;-74
2022/05/22 02:21:52;;;;;;;4.28;1.60;;;12.00;74.80;;;;;;5095495;28;20044;-74
2022/05/22 02:24:17;;;;;;;3.00;1.35;;;11.90;75.00;;;;;;5095853;28;20500;-73
2022/05/22 02:26:43;;;;;;;2.88;1.10;;;11.80;75.40;;;;;;5095833;28;20023;-73
2022/05/22 02:29:09;;;;;;;6.28;1.73;;;11.80;75.50;;;;;;5095693;28;20105;-73
2022/05/22 02:31:35;;;;;;;3.15;1.33;;;11.80;75.50;;;;;;5095678;28;20099;-73
2022/05/22 02:34:00;;;;;;;2.97;1.25;;;11.80;75.70;;;;;;5095900;28;20480;-73
2022/05/22 02:36:27;;;;;;;4.05;1.70;;;11.80;75.70;;;;;;5095636;28;20016;-73
2022/05/22 02:38:53;;;;;;;5.70;1.50;;;11.80;75.70;;;;;;5095538;28;20492;-73
2022/05/22 02:41:20;;;;;;;4.25;1.20;;;11.80;75.70;;;;;;5095785;28;20033;-73
2022/05/22 02:43:46;;;;;;;9.43;2.28;;;11.80;75.50;;;;;;5095466;28;20035;-73
2022/05/22 02:46:15;;;;;;;3.03;1.75;;;11.70;75.80;;;;;;5095559;28;20020;-73
2022/05/22 02:48:42;;;;;;;3.70;1.63;;;11.70;76.00;;;;;;5095387;28;20032;-73
2022/05/22 02:51:13;;;;;;;3.05;1.38;;;11.80;76.00;;;;;;5095451;28;20492;-73
2022/05/22 02:53:39;;;;;;;2.67;1.52;;;11.80;75.60;;;;;;5077133;28;20484;-73
2022/05/22 02:56:09;;;;;;;2.67;1.70;;;11.70;76.00;;;;;;5095326;28;20020;-72
2022/05/22 02:58:35;;;;;;;3.03;1.40;;;11.70;76.20;;;;;;5095149;28;20504;-73
2022/05/22 03:01:00;;;;;;;3.10;1.42;;;11.60;76.20;;;;;;5095321;28;20129;-73
2022/05/22 03:03:26;;;;;;;3.50;1.60;;;11.50;76.60;;;;;;5095152;28;20044;-73
2022/05/22 03:08:36;;;;;;;6.07;2.00;;;11.60;77.00;;;;;;5095129;28;20085;-73
2022/05/22 03:11:05;;;;;;;5.13;1.85;;;11.50;77.00;;;;;;5095000;28;20023;-73
2022/05/22 03:13:31;;;;;;;6.65;2.10;;;11.50;77.00;;;;;;5094938;28;20107;-73
2022/05/22 03:15:56;;;;;;;4.35;1.40;;;11.40;77.40;;;;;;5094811;28;20051;-73
2022/05/22 03:18:22;;;;;;;4.03;1.55;;;11.40;77.50;;;;;;5095032;28;20020;-72
2022/05/22 03:20:48;;;;;;;4.57;1.60;;;11.30;77.80;;;;;;5094777;28;20138;-73
2022/05/22 03:23:14;;;;;;;4.65;1.55;;;11.40;77.90;;;;;;5094471;28;20044;-73
2022/05/22 03:25:40;;;;;;;4.35;1.50;;;11.40;77.70;;;;;;5093858;28;20099;-73
2022/05/22 03:28:06;;;;;;;5.20;1.60;;;11.40;77.80;;;;;;5094604;28;20028;-75
2022/05/22 03:30:32;;;;;;;3.58;1.40;;;11.50;77.70;;;;;;5094715;28;20069;-74
2022/05/22 03:32:58;;;;;;;4.10;1.30;;;11.50;77.20;;;;;;5094722;28;20028;-75
2022/05/22 03:35:23;;;;;;;3.55;1.95;;;11.50;77.10;;;;;;5094509;28;20499;-80
2022/05/22 03:37:49;;;;;;;3.80;1.55;;;11.40;77.30;;;;;;5094845;28;20486;-78
2022/05/22 03:40:15;;;;;;;4.97;1.67;;;11.30;77.60;;;;;;5094690;28;20047;-81
2022/05/22 03:42:41;;;;;;;5.80;1.80;;;11.30;77.70;;;;;;5094467;28;20039;-81
2022/05/22 03:45:07;;;;;;;4.65;1.60;;;11.30;78.00;;;;;;5094571;28;20481;-81
2022/05/22 03:47:33;;;;;;;3.95;1.65;;;11.30;77.70;;;;;;5094093;28;20028;-80
2022/05/22 03:50:04;;;;;;;4.53;1.92;;;11.30;77.70;;;;;;5094386;28;20073;-80
2022/05/22 03:52:32;;;;;;;2.90;1.55;;;11.40;77.60;;;;;;5076052;28;20032;-78
2022/05/22 03:54:57;;;;;;;3.80;1.60;;;11.30;77.80;;;;;;5094023;28;20016;-79
2022/05/22 03:57:23;;;;;;;2.78;1.63;;;11.30;78.20;;;;;;5094253;28;20353;-80
2022/05/22 03:59:48;;;;;;;4.07;1.63;;;11.30;78.10;;;;;;5094225;28;20089;-80
2022/05/22 04:02:14;;;;;;;2.97;1.48;;;11.40;78.00;;;;;;5094088;28;20422;-76
2022/05/22 04:04:40;;;;;;;3.72;1.38;;;11.30;78.00;;;;;;5093873;28;20170;-74
2022/05/22 04:07:05;;;;;;;2.90;1.42;;;11.10;78.60;;;;;;5094011;28;20031;-74
2022/05/22 04:09:31;;;;;;;5.10;1.63;;;11.10;78.70;;;;;;5093948;28;20495;-73
2022/05/22 04:11:57;;;;;;;4.72;1.52;;;11.20;78.70;;;;;;5075762;28;20166;-73
2022/05/22 04:14:22;;;;;;;5.30;1.88;;;11.30;78.50;;;;;;5075620;28;20395;-75
2022/05/22 04:16:48;;;;;;;3.33;1.50;;;11.40;77.90;;;;;;5093852;28;20031;-73
2022/05/22 04:19:15;;;;;;;3.42;1.52;;;11.50;77.50;;;;;;5093741;28;20020;-73
2022/05/22 04:21:41;;;;;;;3.70;1.40;;;11.60;77.30;;;;;;5093555;28;20070;-73
2022/05/22 04:26:51;;;;;;;4.07;1.88;;;11.70;77.00;;;;;;5093638;28;20035;-73
2022/05/22 04:29:18;;;;;;;4.15;1.48;;;11.60;77.00;;;;;;5093727;28;20024;-73
2022/05/22 04:31:43;;;;;;;7.18;1.73;;;11.70;76.90;;;;;;5093742;28;20092;-73
2022/05/22 04:34:09;;;;;;;5.72;1.95;;;11.80;76.40;;;;;;5092265;28;20531;-73
2022/05/22 04:36:35;;;;;;;2.67;1.63;;;11.80;76.20;;;;;;5093284;28;20210;-73
2022/05/22 04:39:00;;;;;;;3.33;1.70;;;11.90;76.00;;;;;;5093573;28;20035;-73
2022/05/22 04:41:26;;;;;;;3.75;1.80;;;12.10;75.70;;;;;;5093323;28;20047;-74
2022/05/22 04:43:51;;;;;;;4.38;1.50;;;12.20;75.20;;;;;;5093434;28;20502;-74
2022/05/22 04:46:17;;;;;;;3.40;1.90;;;12.30;75.00;;;;;;5093469;28;20020;-76
2022/05/22 04:48:43;;;;;;;4.43;1.80;;;12.40;74.50;;;;;;5093728;28;20031;-74
2022/05/22 04:51:08;;;;;;;4.65;1.90;;;12.60;74.30;;;;;;5093160;28;20099;-73
2022/05/22 04:53:34;;;;;;;5.05;1.55;;;12.70;73.70;;;;;;5093482;28;20111;-80
2022/05/22 04:56:00;;;;;;;2.78;1.80;;;12.80;73.00;;;;;;5093234;28;20024;-81
2022/05/22 04:58:26;;;;;;;4.53;1.40;;;13.00;72.70;;;;;;5093134;28;20464;-74
2022/05/22 05:00:52;;;;;;;5.18;1.40;;;13.10;72.30;;;;;;5092928;28;20026;-74
2022/05/22 05:03:17;;;;;;;5.30;1.63;;;13.30;71.40;;;;;;5093042;28;20495;-75
2022/05/22 05:05:52;;;;;;;3.42;1.70;;;13.30;70.80;;;;;;5074902;28;20071;-73
2022/05/22 05:08:18;;;;;;;2.22;1.30;;;13.40;70.40;;;;;;5093086;28;20048;-75
2022/05/22 05:10:46;;;;;;;2.67;1.50;;;13.50;70.20;;;;;;5093143;28;20031;-75
2022/05/22 05:13:12;;;;;;;4.22;1.88;;;13.60;69.90;;;;;;5093067;28;20423;-75
2022/05/22 05:15:37;;;;;;;1.65;1.35;;;13.70;69.90;;;;;;5093006;28;20061;-74
2022/05/22 05:18:03;;;;;;;2.10;1.52;;;13.80;69.60;;;;;;5092839;28;20064;-73
2022/05/22 05:20:29;;;;;;;4.18;1.38;;;13.90;69.40;;;;;;5075059;28;20032;-73
2022/05/22 05:22:54;;;;;;;3.95;1.50;;;14.00;69.10;;;;;;5093007;28;20088;-73
2022/05/22 05:25:21;;;;;;;2.50;1.50;;;14.10;68.80;;;;;;5092874;28;20052;-73
2022/05/22 05:27:47;;;;;;;4.78;1.75;;;14.20;68.30;;;;;;5093254;28;20111;-73
2022/05/22 05:30:13;;;;;;;4.70;1.60;;;14.30;68.20;;;;;;5093218;28;20107;-73
2022/05/22 05:32:38;;;;;;;1.83;1.38;;;14.40;67.40;;;;;;5094203;28;20061;-73
2022/05/22 05:35:07;;;;;;;4.72;1.70;;;14.40;67.10;;;;;;5095083;28;20016;-74
2022/05/22 05:37:34;;;;;;;3.20;1.30;;;14.60;66.80;;;;;;5093692;28;20085;-74
2022/05/22 05:39:59;;;;;;;3.05;1.23;;;14.80;67.20;;;;;;5093166;28;20020;-75
2022/05/22 05:42:30;;;;;;;2.53;1.23;;;14.90;65.90;;;;;;5092673;28;20032;-73
2022/05/22 05:44:56;;;;;;;3.92;1.17;;;15.00;66.40;;;;;;5092843;28;20027;-75
2022/05/22 05:47:22;;;;;;;3.35;1.10;;;15.20;65.30;;;;;;5093480;28;20349;-75
2022/05/22 05:49:47;;;;;;;3.97;1.42;;;15.30;64.80;;;;;;5096732;28;20466;-74
2022/05/22 05:52:13;;;;;;;4.97;1.42;;;15.50;63.80;;;;;;5096675;28;20039;-74
2022/05/22 05:54:38;;;;;;;6.63;1.25;;;15.60;63.30;;;;;;5096600;28;20027;-74
2022/05/22 05:57:04;;;;;;;3.58;1.05;;;15.70;63.10;;;;;;5096524;28;20032;-77
2022/05/22 05:59:33;;;;;;;4.43;1.50;;;15.80;62.80;;;;;;5096375;28;20028;-73
2022/05/22 06:01:58;;;;;;;3.45;1.20;;;15.80;62.60;;;;;;5096325;28;20027;-79
2022/05/22 06:04:24;;;;;;;4.97;1.38;;;16.00;62.30;;;;;;5096446;28;20028;-80
2022/05/22 06:06:49;;;;;;;9.27;1.77;;;16.10;62.20;;;;;;5078273;28;20012;-78
2022/05/22 06:09:15;;;;;;;2.85;1.20;;;16.20;61.60;;;;;;5096046;28;20028;-79
2022/05/22 06:11:41;;;;;;;3.92;1.17;;;16.40;60.70;;;;;;5096105;28;20039;-79
2022/05/22 06:14:06;;;;;;;3.15;1.10;;;16.40;60.70;;;;;;5096207;28;20103;-82
2022/05/22 06:16:32;;;;;;;2.67;1.20;;;16.50;60.80;;;;;;5095852;28;20063;-77
2022/05/22 06:18:57;;;;;;;4.18;1.45;;;16.60;59.90;;;;;;5096150;28;20028;-80
2022/05/22 06:21:23;;;;;;;1.52;1.05;;;16.70;59.60;;;;;;5095926;28;20051;-74
2022/05/22 06:23:49;;;;;;;4.18;1.42;;;16.90;59.20;;;;;;5095874;28;20392;-77
2022/05/22 06:26:17;;;;;;;4.55;1.10;;;17.00;58.30;;;;;;5095799;28;20059;-80
2022/05/22 06:28:43;;;;;;;2.40;1.20;;;17.20;57.80;;;;;;5095685;28;20031;-75
2022/05/22 06:31:09;;;;;;;2.95;1.20;;;17.40;57.00;;;;;;5095753;28;20012;-76
2022/05/22 06:33:35;;;;;;;6.55;1.25;;;17.50;56.40;;;;;;5077660;28;20110;-74
2022/05/22 06:36:10;;;;;;;3.97;1.05;;;17.70;55.50;;;;;;5095666;28;20028;-74
2022/05/22 06:41:20;;;;;;;4.70;1.40;;;17.90;54.30;;;;;;5095679;28;20395;-75
2022/05/22 06:43:52;;;;;;;2.35;0.98;;;18.00;54.20;;;;;;5095442;28;20024;-74
2022/05/22 06:46:30;;;;;;;3.00;1.00;;;18.10;54.10;;;;;;5095513;28;20103;-77
2022/05/22 06:48:55;;;;;;;3.20;0.88;;;18.20;54.30;;;;;;5095405;28;20119;-74
2022/05/22 06:51:21;;;;;;;2.00;1.15;;;18.30;54.20;;;;;;5095301;28;20099;-80
2022/05/22 06:53:47;;;;;;;3.80;1.23;;;18.30;53.20;;;;;;5095568;28;20024;-81
2022/05/22 06:56:12;;;;;;;3.63;0.95;;;18.40;53.60;;;;;;5095364;28;20020;-76
2022/05/22 06:58:38;;;;;;;1.63;0.80;;;18.60;52.50;;;;;;5094939;28;20034;-77
2022/05/22 07:01:04;;;;;;;4.65;0.98;;;18.70;51.50;;;;;;5095337;28;20464;-75
2022/05/22 07:03:30;;;;;;;2.70;0.90;;;18.80;51.50;;;;;;5095113;28;20476;-75
2022/05/22 07:05:56;;;;;;;2.08;0.98;;;18.90;50.80;;;;;;5095284;28;20031;-74
2022/05/22 07:08:21;;;;;;;2.70;1.02;;;19.00;50.90;;;;;;5095311;28;20111;-80
2022/05/22 07:13:32;;;;;;;2.50;0.90;;;19.20;49.70;;;;;;5097372;28;20077;-80
2022/05/22 07:16:03;;;;;;;1.55;0.70;;;19.30;49.20;;;;;;5096138;28;20082;-75
2022/05/22 07:18:29;;;;;;;4.68;1.08;;;19.20;48.80;;;;;;5095007;28;20020;-73
2022/05/22 07:20:56;;;;;;;1.90;0.80;;;19.30;49.60;;;;;;5094760;28;20540;-77
2022/05/22 07:23:21;;;;;;;3.30;1.13;;;19.50;49.10;;;;;;5094717;28;20344;-77
2022/05/22 07:25:47;;;;;;;3.17;0.98;;;19.80;47.70;;;;;;5095253;28;20024;-73
2022/05/22 07:28:13;;;;;;;1.65;0.93;;;20.00;47.40;;;;;;5094514;28;20036;-76
2022/05/22 07:30:39;;;;;;;5.70;1.30;;;20.20;47.20;;;;;;5094708;28;20059;-74
2022/05/22 07:33:04;;;;;;;3.50;1.50;;;20.50;48.40;;;;;;5076730;28;20479;-74
2022/05/22 07:35:30;;;;;;;9.00;3.50;;;20.70;46.30;;;;;;5094655;28;20149;-74
2022/05/22 07:37:56;;;;;;;4.13;1.30;;;20.90;44.70;;;;;;5094424;28;20089;-73
2022/05/22 07:40:21;;;;;;;7.22;1.20;;;21.00;44.90;;;;;;5094535;28;20027;-74
2022/05/22 07:42:47;;;;;;;3.45;0.80;;;21.10;44.70;;;;;;5094240;28;20409;-74
2022/05/22 07:45:15;;;;;;;2.67;1.00;;;21.30;44.20;;;;;;5094437;28;20027;-74
2022/05/22 07:47:41;;;;;;;3.85;1.17;;;21.50;43.80;;;;;;5094189;28;20016;-74
2022/05/22 07:50:17;;;;;;;3.05;1.00;;;21.70;43.40;;;;;;5094423;28;20016;-72
2022/05/22 07:52:42;;;;;;;;;;;21.80;43.60;;;;;;5094811;28;20036;-72
2022/05/22 07:55:15;;;;;;;2.08;0.90;;;22.00;43.50;;;;;;5094175;28;19914;-75
2022/05/22 07:57:42;;;;;;;1.77;1.00;;;22.30;42.90;;;;;;5093988;28;20115;-72
2022/05/22 08:00:09;;;;;;;1.67;0.60;;;22.20;43.10;;;;;;5094117;28;20013;-72
2022/05/22 08:02:35;;;;;;;1.45;0.77;;;22.40;43.10;;;;;;5094023;28;20111;-76
2022/05/22 08:05:00;;;;;;;2.95;1.00;;;22.60;42.00;;;;;;5094565;28;20145;-73
2022/05/22 08:07:26;;;;;;;2.22;1.00;;;22.50;42.90;;;;;;5094359;28;20032;-75
2022/05/22 08:09:54;;;;;;;1.42;0.80;;;22.40;43.10;;;;;;5094536;28;20384;-74
2022/05/22 08:12:19;;;;;;;1.42;0.95;;;22.60;42.30;;;;;;5094164;28;20024;-79
2022/05/22 08:14:45;;;;;;;6.80;1.25;;;22.40;41.50;;;;;;5094207;28;20031;-77
2022/05/22 08:17:12;;;;;;;2.97;0.75;;;22.50;41.90;;;;;;5093934;28;20035;-74
2022/05/22 08:19:37;;;;;;;3.03;0.70;;;22.30;40.40;;;;;;5091226;28;20388;-76
2022/05/22 08:22:03;;;;;;;3.55;0.90;;;22.40;41.90;;;;;;5093377;28;20036;-77
2022/05/22 08:24:28;;;;;;;5.85;1.00;;;22.30;40.60;;;;;;5093386;28;20417;-75
2022/05/22 08:26:54;;;;;;;2.55;1.25;;;22.50;40.80;;;;;;5093365;28;20358;-77
2022/05/22 08:29:20;;;;;;;1.83;0.85;;;22.60;39.80;;;;;;5084867;28;20032;-77
2022/05/22 08:31:45;;;;;;;3.08;0.93;;;22.40;39.90;;;;;;5093294;28;20381;-77
2022/05/22 08:34:13;;;;;;;1.83;0.80;;;22.40;40.20;;;;;;5093238;28;20102;-76
2022/05/22 08:36:38;;;;;;;2.40;0.77;;;22.60;40.60;;;;;;5093171;28;20020;-75
2022/05/22 08:39:05;;;;;;;2.15;0.77;;;22.70;38.90;;;;;;5093336;28;20092;-76
2022/05/22 08:41:40;;;;;;;1.02;0.75;;;22.90;38.40;;;;;;5093371;28;20395;-77
2022/05/22 08:44:13;;;;;;;2.78;0.45;;;23.10;37.90;;;;;;5093426;28;20035;-78
2022/05/22 08:46:52;;;;;;;1.80;0.85;;;23.30;37.20;;;;;;5093238;28;20028;-76
2022/05/22 08:49:38;;;;;;;2.28;0.70;;;23.50;36.30;;;;;;5093068;28;20055;-76
2022/05/22 08:52:09;;;;;;;1.58;0.70;;;23.70;36.10;;;;;;5093069;28;20035;-77
2022/05/22 08:54:42;;;;;;;1.20;0.68;;;23.80;35.80;;;;;;5093099;28;20112;-77
2022/05/22 09:00:08;;;;;;;3.67;0.98;;;23.90;33.90;;;;;;5093418;28;20074;-75
2022/05/22 09:02:37;;;;;;;1.98;0.77;;;23.60;33.50;;;;;;5093035;28;20400;-76
2022/05/22 09:05:19;;;;;;;1.90;0.80;;;23.40;33.30;;;;;;5092819;28;20043;-75
2022/05/22 09:08:06;;;;;;;1.38;0.60;;;23.20;34.20;;;;;;5093168;28;20373;-76
2022/05/22 09:11:04;;;;;;;3.58;1.00;;;23.10;36.30;;;;;;5086347;28;20031;-76
2022/05/22 09:13:52;;;;;;;0.95;0.70;;;22.90;36.10;;;;;;5071848;28;20575;-75
2022/05/22 09:16:51;;;;;;;1.67;0.60;;;22.80;35.30;;;;;;5074664;28;20021;-75
2022/05/22 09:19:35;;;;;;;2.20;0.60;;;22.70;35.10;;;;;;5092805;28;20039;-75
2022/05/22 09:22:22;;;;;;;1.40;1.10;;;23.00;36.10;;;;;;5094505;28;20040;-74
2022/05/22 09:24:54;;;;;;;3.08;0.70;;;23.30;35.10;;;;;;5096974;28;20027;-75
2022/05/22 09:27:41;;;;;;;1.25;0.50;;;23.30;32.00;;;;;;5097067;28;20361;-76
2022/05/22 09:30:08;;;;;;;1.80;0.63;;;23.00;32.10;;;;;;5096553;28;20020;-75
2022/05/22 09:33:12;;;;;;;1.13;0.57;;;22.80;33.80;;;;;;5096486;28;20028;-75
2022/05/22 09:35:57;;;;;;;2.42;1.23;;;22.90;34.40;;;;;;5062557;28;20036;-75
2022/05/22 09:38:48;;;;;;;3.65;1.00;;;23.10;34.10;;;;;;5096746;28;20020;-74
2022/05/22 09:41:31;;;;;;;0.95;0.60;;;23.10;33.80;;;;;;5096586;28;20026;-74
2022/05/22 09:44:13;;;;;;;3.90;0.60;;;23.20;32.40;;;;;;5096684;28;20038;-74
2022/05/22 09:47:10;;;;;;;1.25;0.60;;;23.40;32.30;;;;;;5078597;28;20024;-74
2022/05/22 09:50:14;;;;;;;2.47;0.60;;;23.40;31.90;;;;;;5095408;28;20032;-75
2022/05/22 09:53:07;;;;;;;2.25;0.70;;;23.60;32.20;;;;;;5096800;28;20020;-73
2022/05/22 09:55:41;;;;;;;0.82;0.50;;;23.20;32.20;;;;;;5086535;28;20076;-76
2022/05/22 09:58:20;;;;;;;2.08;0.60;;;23.50;33.10;;;;;;5078304;28;20023;-74
2022/05/22 10:01:06;;;;;;;1.13;0.55;;;23.80;31.80;;;;;;5096380;28;20023;-76
2022/05/22 10:03:59;;;;;;;2.15;0.80;;;24.30;31.60;;;;;;5096058;28;20085;-74
2022/05/22 10:06:54;;;;;;;3.67;0.70;;;24.70;30.70;;;;;;5095241;28;20016;-75
2022/05/22 10:09:32;;;;;;;0.77;0.38;;;25.00;28.90;;;;;;5096165;28;20055;-75
2022/05/22 10:12:15;;;;;;;0.70;0.50;;;25.20;28.70;;;;;;5096342;28;20016;-75
2022/05/22 10:14:59;;;;;;;1.88;0.50;;;25.40;28.80;;;;;;5096228;28;20101;-75
2022/05/22 10:17:44;;;;;;;1.80;0.70;;;25.60;28.10;;;;;;5096044;28;20028;-75
2022/05/22 10:20:19;;;;;;;2.13;0.75;;;25.60;26.10;;;;;;5096027;28;20085;-75
2022/05/22 10:22:56;;;;;;;;;;;25.60;27.60;;;;;;5096322;28;20043;-74
2022/05/22 10:25:54;;;;;;;1.55;0.70;;;25.60;27.90;;;;;;5096167;28;19907;-74
2022/05/22 10:28:30;;;;;;;2.33;0.68;;;25.60;29.00;;;;;;5095872;28;20405;-74
2022/05/22 10:31:00;;;;;;;3.25;0.47;;;25.70;28.10;;;;;;5095842;28;20138;-74
2022/05/22 10:33:29;;;;;;;2.67;0.80;;;25.50;27.80;;;;;;5095292;28;20020;-74
2022/05/22 10:36:08;;;;;;;3.33;0.80;;;25.00;28.60;;;;;;5094485;28;20024;-74
2022/05/22 10:38:40;;;;;;;1.83;0.60;;;24.60;30.00;;;;;;5077683;28;20032;-74
2022/05/22 10:44:26;;;;;;;4.57;1.00;;;24.80;30.60;;;;;;5095569;28;20071;-74
2022/05/22 10:46:53;;;;;;;0.90;0.40;;;25.30;29.60;;;;;;5077466;28;20024;-73
2022/05/22 10:49:24;;;;;;;1.42;0.40;;;25.30;24.40;;;;;;5095210;28;20477;-72
2022/05/22 10:52:10;;;;;;;0.40;0.30;;;25.10;22.60;;;;;;5095572;28;20028;-72
2022/05/22 10:54:45;;;;;;;1.33;0.65;;;25.20;22.70;;;;;;5095355;28;20464;-73
2022/05/22 10:57:17;;;;;;;0.88;0.50;;;25.20;22.60;;;;;;5095394;28;20103;-73
2022/05/22 10:59:43;;;;;;;2.30;0.47;;;25.50;21.30;;;;;;5095651;28;20036;-72
2022/05/22 11:02:28;;;;;;;1.67;0.70;;;25.50;23.80;;;;;;5095191;28;20476;-73
2022/05/22 11:04:56;;;;;;;0.68;0.40;;;25.30;23.00;;;;;;5095282;28;20033;-72
2022/05/22 11:07:35;;;;;;;3.08;0.80;;;25.30;19.00;;;;;;5095159;28;20024;-72
2022/05/22 11:10:26;;;;;;;0.68;0.47;;;25.50;20.90;;;;;;5095285;28;20031;-73
2022/05/22 11:13:10;;;;;;;0.55;0.52;;;25.60;22.60;;;;;;5095149;28;20567;-73
2022/05/22 11:15:42;;;;;;;2.83;0.57;;;25.80;20.30;;;;;;5095071;28;20039;-74
2022/05/22 11:18:22;;;;;;;1.70;0.45;;;26.10;19.30;;;;;;5095021;28;20035;-73
2022/05/22 11:21:14;;;;;;;1.67;0.50;;;26.10;17.80;;;;;;5094532;28;20057;-73
2022/05/22 11:24:09;;;;;;;1.52;0.52;;;26.00;16.70;;;;;;5074760;28;20140;-72
2022/05/22 11:26:56;;;;;;;1.45;0.65;;;25.60;17.80;;;;;;5074510;28;20029;-73
2022/05/22 11:29:48;;;;;;;0.68;0.50;;;25.60;17.80;;;;;;5074470;28;20364;-73
2022/05/22 11:32:50;;;;;;;1.42;0.55;;;25.40;18.30;;;;;;5074303;28;20025;-72
2022/05/22 11:35:34;;;;;;;0.90;0.30;;;25.60;17.80;;;;;;5074173;28;20052;-77
2022/05/22 11:38:15;;;;;;;1.00;0.32;;;26.00;18.00;;;;;;5074428;28;20514;-73
2022/05/22 11:41:19;;;;;;;0.20;0.20;;;26.30;17.70;;;;;;5074189;28;20111;-73
2022/05/22 11:43:48;;;;;;;1.42;0.32;;;26.50;16.90;;;;;;5074132;28;20176;-77
2022/05/22 11:46:34;;;;;;;1.65;0.63;;;26.80;17.30;;;;;;5073140;28;20036;-77
2022/05/22 11:49:24;;;;;;;5.25;0.40;;;27.00;15.70;;;;;;5074106;28;20132;-76
2022/05/22 11:55:19;;;;;;;1.40;0.55;;;27.20;14.50;;;;;;5074339;28;20039;-84
2022/05/22 11:57:56;;;;;;;2.15;0.77;;;27.40;16.70;;;;;;5073745;28;20029;-73
2022/05/22 12:00:30;;;;;;;1.15;0.45;;;27.80;17.40;;;;;;5073926;28;20060;-73
2022/05/22 12:03:30;;;;;;;0.45;0.40;;;28.10;16.60;;;;;;5073874;28;20029;-73
2022/05/22 12:06:30;;;;;;;1.58;0.40;;;28.30;14.90;;;;;;5073702;28;20475;-72
2022/05/22 12:08:56;;;;;;;0.63;0.40;;;27.90;12.50;;;;;;5056214;28;20112;-73
2022/05/22 12:11:32;;;;;;;1.58;0.43;;;27.50;12.70;;;;;;5073608;28;20103;-73
2022/05/22 12:14:29;;;;;;;0.57;0.47;;;27.80;14.20;;;;;;5073745;28;20020;-73
2022/05/22 12:17:16;;;;;;;1.88;0.60;;;28.10;14.50;;;;;;5073613;28;20025;-72
2022/05/22 12:19:56;;;;;;;2.15;0.47;;;28.00;16.50;;;;;;5055229;28;20032;-72
2022/05/22 12:25:22;;;;;;;1.50;0.60;;;28.70;18.70;;;;;;5093573;28;20054;-73
2022/05/22 12:27:49;;;;;;;1.15;0.50;;;29.10;22.00;;;;;;5093761;28;20073;-75
2022/05/22 12:30:38;;;;;;;1.95;0.75;;;29.20;20.00;;;;;;5093592;28;20032;-75
2022/05/22 12:33:09;;;;;;;0.43;0.38;;;29.50;18.50;;;;;;5093489;28;20051;-75
2022/05/22 12:35:37;;;;;;;2.67;0.70;;;29.60;18.30;;;;;;5093536;28;20031;-75
2022/05/22 12:38:06;;;;;;;1.38;0.75;;;29.40;18.80;;;;;;5093470;28;20048;-74
2022/05/22 12:40:49;;;;;;;2.38;0.85;;;29.40;19.10;;;;;;5093466;28;20032;-75
2022/05/22 12:43:18;;;;;;;1.67;0.90;;;29.30;18.70;;;;;;5093184;28;20391;-73
2022/05/22 12:45:48;;;;;;;1.35;0.60;;;29.10;19.90;;;;;;5093245;28;20024;-73
2022/05/22 12:48:24;;;;;;;1.20;0.70;;;28.20;21.10;;;;;;5093038;28;20024;-75
2022/05/22 12:51:11;;;;;;;1.40;0.70;;;27.70;22.20;;;;;;5093034;28;20059;-75
2022/05/22 12:53:39;;;;;;;1.13;0.60;;;27.70;22.70;;;;;;5092830;28;20039;-75
2022/05/22 12:56:27;;;;;;;1.98;0.60;;;28.00;22.10;;;;;;5092877;28;20434;-75
2022/05/22 12:58:52;;;;;;;1.70;0.60;;;28.10;22.90;;;;;;5093174;28;20405;-76
2022/05/22 13:01:22;;;;;;;1.77;0.60;;;28.60;21.40;;;;;;5093278;28;20100;-76
2022/05/22 13:03:52;;;;;;;1.48;0.75;;;28.90;19.80;;;;;;5093082;28;20044;-76
2022/05/22 13:06:44;;;;;;;2.13;0.98;;;28.90;20.50;;;;;;5093001;28;20028;-76
2022/05/22 13:09:39;;;;;;;1.38;0.43;;;28.90;19.50;;;;;;5093125;28;20063;-76
2022/05/22 13:12:13;;;;;;;3.58;0.68;;;28.50;20.30;;;;;;5093127;28;20020;-76
2022/05/22 13:14:54;;;;;;;2.08;0.70;;;28.50;20.30;;;;;;5093047;28;20042;-76
2022/05/22 13:17:50;;;;;;;2.63;0.60;;;28.60;20.00;;;;;;5092671;28;20510;-76
2022/05/22 13:20:42;;;;;;;0.95;0.50;;;28.30;20.60;;;;;;5092971;28;20035;-75
2022/05/22 13:23:24;;;;;;;2.03;0.80;;;28.10;20.20;;;;;;5092916;28;20044;-76
2022/05/22 13:25:53;;;;;;;0.70;0.60;;;28.10;19.30;;;;;;5092879;28;20020;-75
2022/05/22 13:28:42;;;;;;;1.83;0.85;;;28.00;20.20;;;;;;5092953;28;20028;-76
2022/05/22 13:31:07;;;;;;;0.60;0.40;;;27.90;19.60;;;;;;5093003;28;20107;-76
2022/05/22 13:33:45;;;;;;;1.45;0.65;;;27.80;19.40;;;;;;5092935;28;20153;-76
2022/05/22 13:36:18;;;;;;;2.00;0.80;;;27.80;20.00;;;;;;5092944;28;20043;-75
2022/05/22 13:38:43;;;;;;;5.78;3.20;;;27.80;21.00;;;;;;5092963;28;20395;-75
2022/05/22 13:41:30;;;;;;;2.30;1.65;;;27.70;21.80;;;;;;5092872;28;20027;-75